sensor_id;sensor_type;location;lat;lon;timestamp;P1;durP1;ratioP1;P2;durP2;ratioP2
42144;SDS011;27813;43.516;11.890;2023-07-13T04:35:02;6.63;;;2.45;;
42144;SDS011;27813;43.516;11.890;2023-07-13T04:39:06;6.57;;;2.38;;
42144;SDS011;27813;43.516;11.890;2023-07-13T04:43:10;6.03;;;2.80;;
42144;SDS011;27813;43.516;11.890;2023-07-13T04:47:14;4.05;;;2.55;;
42144;SDS011;27813;43.516;11.890;2023-07-13T04:51:18;5.70;;;2.88;;
42144;SDS011;27813;43.516;11.890;2023-07-13T04:55:22;2.92;;;2.30;;
42144;SDS011;27813;43.516;11.890;2023-07-13T04:59:26;7.65;;;2.42;;
42144;SDS011;27813;43.516;11.890;2023-07-13T05:03:30;5.80;;;2.80;;
42144;SDS011;27813;43.516;11.890;2023-07-13T05:07:34;10.85;;;2.90;;
42144;SDS011;27813;43.516;11.890;2023-07-13T05:11:39;7.13;;;2.70;;
42144;SDS011;27813;43.516;11.890;2023-07-13T05:15:42;6.45;;;3.03;;
42144;SDS011;27813;43.516;11.890;2023-07-13T05:19:46;6.65;;;2.83;;
42144;SDS011;27813;43.516;11.890;2023-07-13T05:23:50;7.22;;;2.80;;
42144;SDS011;27813;43.516;11.890;2023-07-13T05:27:54;5.63;;;2.47;;
42144;SDS011;27813;43.516;11.890;2023-07-13T05:31:58;6.80;;;2.65;;
42144;SDS011;27813;43.516;11.890;2023-07-13T05:36:02;7.72;;;2.60;;
42144;SDS011;27813;43.516;11.890;2023-07-13T05:40:06;9.73;;;3.15;;
42144;SDS011;27813;43.516;11.890;2023-07-13T05:44:11;9.57;;;2.78;;
42144;SDS011;27813;43.516;11.890;2023-07-13T05:48:15;5.88;;;3.17;;
42144;SDS011;27813;43.516;11.890;2023-07-13T05:52:19;7.57;;;2.95;;
42144;SDS011;27813;43.516;11.890;2023-07-13T05:56:24;7.82;;;2.25;;
42144;SDS011;27813;43.516;11.890;2023-07-13T06:00:29;5.45;;;2.75;;
42144;SDS011;27813;43.516;11.890;2023-07-13T06:04:33;6.85;;;2.50;;
42144;SDS011;27813;43.516;11.890;2023-07-13T06:08:37;7.32;;;3.72;;
42144;SDS011;27813;43.516;11.890;2023-07-13T06:12:41;8.55;;;5.03;;
42144;SDS011;27813;43.516;11.890;2023-07-13T06:16:46;9.00;;;4.68;;
42144;SDS011;27813;43.516;11.890;2023-07-13T06:20:49;11.68;;;5.25;;
42144;SDS011;27813;43.516;11.890;2023-07-13T06:24:53;14.95;;;5.10;;
42144;SDS011;27813;43.516;11.890;2023-07-13T06:28:57;9.40;;;4.60;;
42144;SDS011;27813;43.516;11.890;2023-07-13T06:33:01;7.80;;;3.78;;
42144;SDS011;27813;43.516;11.890;2023-07-13T06:37:05;6.15;;;3.40;;
42144;SDS011;27813;43.516;11.890;2023-07-13T06:41:10;5.63;;;2.80;;
42144;SDS011;27813;43.516;11.890;2023-07-13T06:45:16;5.00;;;2.47;;
42144;SDS011;27813;43.516;11.890;2023-07-13T06:49:20;3.97;;;2.65;;
42144;SDS011;27813;43.516;11.890;2023-07-13T06:53:24;8.32;;;3.65;;
42144;SDS011;27813;43.516;11.890;2023-07-13T06:57:28;7.03;;;2.95;;
42144;SDS011;27813;43.516;11.890;2023-07-13T07:01:32;6.95;;;2.67;;
42144;SDS011;27813;43.516;11.890;2023-07-13T07:05:36;6.53;;;2.90;;
42144;SDS011;27813;43.516;11.890;2023-07-13T07:09:40;4.45;;;2.50;;
42144;SDS011;27813;43.516;11.890;2023-07-13T07:13:44;9.07;;;3.35;;
42144;SDS011;27813;43.516;11.890;2023-07-13T07:17:48;5.40;;;2.42;;
42144;SDS011;27813;43.516;11.890;2023-07-13T07:21:52;4.63;;;2.60;;
42144;SDS011;27813;43.516;11.890;2023-07-13T07:25:56;4.00;;;2.70;;
42144;SDS011;27813;43.516;11.890;2023-07-13T07:30:00;4.65;;;2.63;;
42144;SDS011;27813;43.516;11.890;2023-07-13T07:34:06;6.65;;;3.25;;
42144;SDS011;27813;43.516;11.890;2023-07-13T07:38:10;3.80;;;2.60;;
42144;SDS011;27813;43.516;11.890;2023-07-13T07:42:15;3.65;;;2.35;;
42144;SDS011;27813;43.516;11.890;2023-07-13T07:46:19;3.78;;;2.20;;
42144;SDS011;27813;43.516;11.890;2023-07-13T07:50:24;4.93;;;3.00;;
42144;SDS011;27813;43.516;11.890;2023-07-13T07:54:29;7.85;;;2.72;;
42144;SDS011;27813;43.516;11.890;2023-07-13T07:58:53;6.45;;;2.97;;
42144;SDS011;27813;43.516;11.890;2023-07-13T08:02:59;6.03;;;4.10;;
42144;SDS011;27813;43.516;11.890;2023-07-13T08:07:23;7.07;;;3.08;;
42144;SDS011;27813;43.516;11.890;2023-07-13T08:11:27;5.78;;;3.03;;
42144;SDS011;27813;43.516;11.890;2023-07-13T08:15:33;8.63;;;4.07;;
42144;SDS011;27813;43.516;11.890;2023-07-13T08:19:37;4.72;;;3.05;;
42144;SDS011;27813;43.516;11.890;2023-07-13T08:23:42;5.20;;;2.92;;
42144;SDS011;27813;43.516;11.890;2023-07-13T08:27:46;7.20;;;2.35;;
42144;SDS011;27813;43.516;11.890;2023-07-13T08:31:49;4.15;;;2.30;;
42144;SDS011;27813;43.516;11.890;2023-07-13T08:35:53;4.00;;;2.55;;
42144;SDS011;27813;43.516;11.890;2023-07-13T08:39:57;4.68;;;2.63;;
42144;SDS011;27813;43.516;11.890;2023-07-13T08:44:01;4.80;;;2.40;;
42144;SDS011;27813;43.516;11.890;2023-07-13T08:56:37;5.30;;;2.72;;
42144;SDS011;27813;43.516;11.890;2023-07-13T09:09:55;5.40;;;2.65;;
42144;SDS011;27813;43.516;11.890;2023-07-13T09:18:09;11.43;;;2.50;;
42144;SDS011;27813;43.516;11.890;2023-07-13T09:22:18;5.65;;;2.80;;
42144;SDS011;27813;43.516;11.890;2023-07-13T09:26:25;12.15;;;2.65;;
42144;SDS011;27813;43.516;11.890;2023-07-13T09:30:37;7.45;;;2.50;;
42144;SDS011;27813;43.516;11.890;2023-07-13T09:34:56;8.60;;;2.75;;
42144;SDS011;27813;43.516;11.890;2023-07-13T09:39:12;14.10;;;3.13;;
42144;SDS011;27813;43.516;11.890;2023-07-13T09:43:25;3.97;;;2.65;;
42144;SDS011;27813;43.516;11.890;2023-07-13T09:47:30;9.82;;;2.80;;
42144;SDS011;27813;43.516;11.890;2023-07-13T09:51:37;5.75;;;3.05;;
42144;SDS011;27813;43.516;11.890;2023-07-13T09:55:42;5.22;;;2.38;;
42144;SDS011;27813;43.516;11.890;2023-07-13T09:59:52;5.97;;;2.33;;
42144;SDS011;27813;43.516;11.890;2023-07-13T10:03:59;6.15;;;2.58;;
42144;SDS011;27813;43.516;11.890;2023-07-13T10:08:03;5.60;;;3.05;;
42144;SDS011;27813;43.516;11.890;2023-07-13T10:12:16;6.35;;;3.58;;
42144;SDS011;27813;43.516;11.890;2023-07-13T10:16:21;6.28;;;2.58;;
42144;SDS011;27813;43.516;11.890;2023-07-13T10:20:27;6.35;;;2.45;;
42144;SDS011;27813;43.516;11.890;2023-07-13T10:24:32;4.70;;;2.35;;
42144;SDS011;27813;43.516;11.890;2023-07-13T10:28:41;6.05;;;2.65;;
42144;SDS011;27813;43.516;11.890;2023-07-13T10:32:48;6.60;;;2.70;;
42144;SDS011;27813;43.516;11.890;2023-07-13T10:36:53;6.57;;;2.80;;
42144;SDS011;27813;43.516;11.890;2023-07-13T10:45:15;5.47;;;2.47;;
42144;SDS011;27813;43.516;11.890;2023-07-13T10:49:22;5.55;;;2.65;;
42144;SDS011;27813;43.516;11.890;2023-07-13T10:53:28;5.07;;;2.70;;
42144;SDS011;27813;43.516;11.890;2023-07-13T10:57:41;5.97;;;2.70;;
42144;SDS011;27813;43.516;11.890;2023-07-13T11:01:50;4.80;;;2.50;;
42144;SDS011;27813;43.516;11.890;2023-07-13T11:10:46;7.05;;;3.13;;
42144;SDS011;27813;43.516;11.890;2023-07-13T11:31:54;10.48;;;4.18;;
42144;SDS011;27813;43.516;11.890;2023-07-13T11:36:12;7.85;;;3.42;;
42144;SDS011;27813;43.516;11.890;2023-07-13T11:40:19;7.07;;;2.88;;
42144;SDS011;27813;43.516;11.890;2023-07-13T11:44:29;8.70;;;3.63;;
42144;SDS011;27813;43.516;11.890;2023-07-13T11:48:35;16.55;;;3.38;;
42144;SDS011;27813;43.516;11.890;2023-07-13T11:52:41;8.00;;;3.30;;
42144;SDS011;27813;43.516;11.890;2023-07-13T11:56:48;7.05;;;3.25;;
42144;SDS011;27813;43.516;11.890;2023-07-13T12:00:53;5.45;;;2.92;;
42144;SDS011;27813;43.516;11.890;2023-07-13T12:05:09;8.13;;;3.90;;
42144;SDS011;27813;43.516;11.890;2023-07-13T12:09:16;11.25;;;2.95;;
42144;SDS011;27813;43.516;11.890;2023-07-13T12:13:20;6.68;;;3.35;;
42144;SDS011;27813;43.516;11.890;2023-07-13T12:17:24;11.40;;;3.30;;
42144;SDS011;27813;43.516;11.890;2023-07-13T12:21:30;8.13;;;3.05;;
42144;SDS011;27813;43.516;11.890;2023-07-13T12:25:41;7.95;;;2.95;;
42144;SDS011;27813;43.516;11.890;2023-07-13T12:29:57;8.95;;;3.85;;
42144;SDS011;27813;43.516;11.890;2023-07-13T12:34:07;13.35;;;3.88;;
42144;SDS011;27813;43.516;11.890;2023-07-13T12:38:16;10.18;;;3.00;;
42144;SDS011;27813;43.516;11.890;2023-07-13T12:46:29;10.82;;;3.15;;
42144;SDS011;27813;43.516;11.890;2023-07-13T12:50:34;8.30;;;3.67;;
42144;SDS011;27813;43.516;11.890;2023-07-13T12:54:41;6.82;;;3.10;;
42144;SDS011;27813;43.516;11.890;2023-07-13T12:59:09;6.75;;;3.45;;
42144;SDS011;27813;43.516;11.890;2023-07-13T13:07:38;8.90;;;3.30;;
42144;SDS011;27813;43.516;11.890;2023-07-13T13:11:42;7.63;;;3.65;;
42144;SDS011;27813;43.516;11.890;2023-07-13T13:15:46;8.82;;;3.40;;
42144;SDS011;27813;43.516;11.890;2023-07-13T13:19:51;8.02;;;3.75;;
42144;SDS011;27813;43.516;11.890;2023-07-13T13:23:59;8.13;;;3.40;;
42144;SDS011;27813;43.516;11.890;2023-07-13T13:28:03;7.30;;;3.28;;
42144;SDS011;27813;43.516;11.890;2023-07-13T13:32:09;8.63;;;3.53;;
42144;SDS011;27813;43.516;11.890;2023-07-13T13:36:19;8.50;;;3.38;;
42144;SDS011;27813;43.516;11.890;2023-07-13T13:40:25;5.70;;;2.75;;
42144;SDS011;27813;43.516;11.890;2023-07-13T13:44:30;10.00;;;4.05;;
42144;SDS011;27813;43.516;11.890;2023-07-13T13:48:35;10.18;;;3.85;;
42144;SDS011;27813;43.516;11.890;2023-07-13T13:52:43;9.52;;;4.22;;
42144;SDS011;27813;43.516;11.890;2023-07-13T13:56:49;11.63;;;4.10;;
42144;SDS011;27813;43.516;11.890;2023-07-13T14:00:54;9.65;;;4.03;;
42144;SDS011;27813;43.516;11.890;2023-07-13T14:04:59;9.75;;;3.75;;
42144;SDS011;27813;43.516;11.890;2023-07-13T14:09:08;15.57;;;4.13;;
42144;SDS011;27813;43.516;11.890;2023-07-13T14:13:18;13.65;;;3.40;;
42144;SDS011;27813;43.516;11.890;2023-07-13T14:17:29;11.30;;;4.15;;
42144;SDS011;27813;43.516;11.890;2023-07-13T14:21:39;12.13;;;4.40;;
42144;SDS011;27813;43.516;11.890;2023-07-13T14:25:44;10.65;;;3.33;;
42144;SDS011;27813;43.516;11.890;2023-07-13T14:29:52;15.45;;;4.40;;
42144;SDS011;27813;43.516;11.890;2023-07-13T14:33:56;11.38;;;4.05;;
42144;SDS011;27813;43.516;11.890;2023-07-13T14:38:01;9.00;;;3.85;;
42144;SDS011;27813;43.516;11.890;2023-07-13T14:42:08;9.18;;;3.88;;
42144;SDS011;27813;43.516;11.890;2023-07-13T14:46:18;11.35;;;4.57;;
42144;SDS011;27813;43.516;11.890;2023-07-13T14:50:30;14.13;;;4.10;;
42144;SDS011;27813;43.516;11.890;2023-07-13T14:54:35;10.88;;;3.30;;
42144;SDS011;27813;43.516;11.890;2023-07-13T14:58:43;9.25;;;3.83;;
42144;SDS011;27813;43.516;11.890;2023-07-13T15:02:49;9.85;;;3.80;;
42144;SDS011;27813;43.516;11.890;2023-07-13T15:07:01;9.52;;;3.50;;
42144;SDS011;27813;43.516;11.890;2023-07-13T15:11:07;9.45;;;3.30;;
42144;SDS011;27813;43.516;11.890;2023-07-13T15:15:14;9.88;;;3.38;;
42144;SDS011;27813;43.516;11.890;2023-07-13T15:19:19;12.85;;;3.97;;
42144;SDS011;27813;43.516;11.890;2023-07-13T15:23:23;7.65;;;3.13;;
42144;SDS011;27813;43.516;11.890;2023-07-13T15:27:29;14.43;;;4.85;;
42144;SDS011;27813;43.516;11.890;2023-07-13T15:31:33;10.15;;;3.38;;
42144;SDS011;27813;43.516;11.890;2023-07-13T15:35:39;9.30;;;3.92;;
42144;SDS011;27813;43.516;11.890;2023-07-13T15:39:45;11.30;;;3.92;;
42144;SDS011;27813;43.516;11.890;2023-07-13T15:43:49;9.43;;;3.65;;
42144;SDS011;27813;43.516;11.890;2023-07-13T15:47:59;7.88;;;3.58;;
42144;SDS011;27813;43.516;11.890;2023-07-13T15:52:03;11.85;;;3.55;;
42144;SDS011;27813;43.516;11.890;2023-07-13T15:56:14;8.90;;;3.78;;
42144;SDS011;27813;43.516;11.890;2023-07-13T16:00:26;10.10;;;3.70;;
42144;SDS011;27813;43.516;11.890;2023-07-13T16:04:30;9.18;;;3.42;;
42144;SDS011;27813;43.516;11.890;2023-07-13T16:08:36;12.20;;;4.15;;
42144;SDS011;27813;43.516;11.890;2023-07-13T16:12:44;8.10;;;3.90;;
42144;SDS011;27813;43.516;11.890;2023-07-13T16:16:50;17.05;;;3.85;;
42144;SDS011;27813;43.516;11.890;2023-07-13T16:20:59;8.85;;;3.80;;
42144;SDS011;27813;43.516;11.890;2023-07-13T16:25:09;9.35;;;3.67;;
42144;SDS011;27813;43.516;11.890;2023-07-13T16:29:21;7.78;;;3.17;;
42144;SDS011;27813;43.516;11.890;2023-07-13T16:33:29;6.40;;;4.18;;
42144;SDS011;27813;43.516;11.890;2023-07-13T16:37:33;14.05;;;3.25;;
42144;SDS011;27813;43.516;11.890;2023-07-13T16:41:47;7.25;;;3.60;;
42144;SDS011;27813;43.516;11.890;2023-07-13T16:45:55;14.02;;;3.80;;
42144;SDS011;27813;43.516;11.890;2023-07-13T16:50:25;8.40;;;3.42;;
42144;SDS011;27813;43.516;11.890;2023-07-13T16:54:36;8.98;;;3.95;;
42144;SDS011;27813;43.516;11.890;2023-07-13T16:58:44;8.70;;;3.38;;
42144;SDS011;27813;43.516;11.890;2023-07-13T17:02:49;7.82;;;3.67;;
42144;SDS011;27813;43.516;11.890;2023-07-13T17:06:58;10.40;;;4.20;;
42144;SDS011;27813;43.516;11.890;2023-07-13T17:11:02;7.30;;;3.72;;
42144;SDS011;27813;43.516;11.890;2023-07-13T17:15:07;9.60;;;3.38;;
42144;SDS011;27813;43.516;11.890;2023-07-13T17:19:13;10.60;;;4.55;;
42144;SDS011;27813;43.516;11.890;2023-07-13T17:23:20;11.35;;;4.53;;
42144;SDS011;27813;43.516;11.890;2023-07-13T17:27:26;9.13;;;4.28;;
42144;SDS011;27813;43.516;11.890;2023-07-13T17:31:30;11.73;;;4.57;;
42144;SDS011;27813;43.516;11.890;2023-07-13T17:35:43;10.32;;;3.88;;
42144;SDS011;27813;43.516;11.890;2023-07-13T17:39:47;9.88;;;4.57;;
42144;SDS011;27813;43.516;11.890;2023-07-13T17:43:51;11.32;;;4.28;;
42144;SDS011;27813;43.516;11.890;2023-07-13T17:47:55;6.95;;;3.47;;
42144;SDS011;27813;43.516;11.890;2023-07-13T17:52:00;9.30;;;3.42;;
42144;SDS011;27813;43.516;11.890;2023-07-13T17:56:11;9.75;;;3.85;;
42144;SDS011;27813;43.516;11.890;2023-07-13T18:00:17;11.60;;;3.60;;
42144;SDS011;27813;43.516;11.890;2023-07-13T18:04:37;9.95;;;4.00;;
42144;SDS011;27813;43.516;11.890;2023-07-13T18:08:41;6.35;;;3.72;;
42144;SDS011;27813;43.516;11.890;2023-07-13T18:12:44;9.85;;;3.45;;
42144;SDS011;27813;43.516;11.890;2023-07-13T18:16:50;13.55;;;4.20;;
42144;SDS011;27813;43.516;11.890;2023-07-13T18:20:59;12.13;;;4.00;;
42144;SDS011;27813;43.516;11.890;2023-07-13T18:25:13;9.60;;;4.30;;
42144;SDS011;27813;43.516;11.890;2023-07-13T18:29:20;15.02;;;3.90;;
42144;SDS011;27813;43.516;11.890;2023-07-13T18:33:31;9.70;;;4.20;;
42144;SDS011;27813;43.516;11.890;2023-07-13T18:37:36;9.23;;;3.47;;
42144;SDS011;27813;43.516;11.890;2023-07-13T18:41:40;12.38;;;4.60;;
42144;SDS011;27813;43.516;11.890;2023-07-13T18:45:44;11.55;;;4.40;;
42144;SDS011;27813;43.516;11.890;2023-07-13T18:49:49;10.30;;;4.25;;
42144;SDS011;27813;43.516;11.890;2023-07-13T18:53:54;13.45;;;3.60;;
42144;SDS011;27813;43.516;11.890;2023-07-13T18:57:58;12.63;;;5.43;;
42144;SDS011;27813;43.516;11.890;2023-07-13T19:02:03;9.85;;;4.97;;
42144;SDS011;27813;43.516;11.890;2023-07-13T19:06:13;13.73;;;4.78;;
42144;SDS011;27813;43.516;11.890;2023-07-13T19:10:21;15.40;;;5.13;;
42144;SDS011;27813;43.516;11.890;2023-07-13T19:14:28;15.75;;;5.32;;
42144;SDS011;27813;43.516;11.890;2023-07-13T19:18:34;11.52;;;4.93;;
42144;SDS011;27813;43.516;11.890;2023-07-13T19:22:39;12.43;;;4.57;;
42144;SDS011;27813;43.516;11.890;2023-07-13T19:26:44;10.13;;;6.28;;
42144;SDS011;27813;43.516;11.890;2023-07-13T19:30:57;19.25;;;5.53;;
42144;SDS011;27813;43.516;11.890;2023-07-13T19:35:01;10.63;;;4.43;;
42144;SDS011;27813;43.516;11.890;2023-07-13T19:39:27;8.77;;;4.50;;
42144;SDS011;27813;43.516;11.890;2023-07-13T19:43:45;9.20;;;3.97;;
42144;SDS011;27813;43.516;11.890;2023-07-13T19:47:50;10.60;;;4.53;;
42144;SDS011;27813;43.516;11.890;2023-07-13T19:51:55;12.85;;;5.25;;
42144;SDS011;27813;43.516;11.890;2023-07-13T19:56:00;12.70;;;4.47;;
42144;SDS011;27813;43.516;11.890;2023-07-13T20:00:38;12.85;;;4.82;;
42144;SDS011;27813;43.516;11.890;2023-07-13T20:04:34;9.95;;;4.10;;
42144;SDS011;27813;43.516;11.890;2023-07-13T20:08:39;16.00;;;4.60;;
42144;SDS011;27813;43.516;11.890;2023-07-13T20:12:43;10.13;;;4.47;;
42144;SDS011;27813;43.516;11.890;2023-07-13T20:16:47;12.40;;;4.38;;
42144;SDS011;27813;43.516;11.890;2023-07-13T20:20:54;17.33;;;6.13;;
42144;SDS011;27813;43.516;11.890;2023-07-13T20:24:58;15.95;;;5.68;;
42144;SDS011;27813;43.516;11.890;2023-07-13T20:29:02;11.55;;;4.90;;
42144;SDS011;27813;43.516;11.890;2023-07-13T20:33:11;9.98;;;4.18;;
42144;SDS011;27813;43.516;11.890;2023-07-13T20:37:27;9.93;;;4.25;;
42144;SDS011;27813;43.516;11.890;2023-07-13T20:41:35;10.95;;;4.60;;
42144;SDS011;27813;43.516;11.890;2023-07-13T20:45:42;13.65;;;4.72;;
42144;SDS011;27813;43.516;11.890;2023-07-13T20:49:50;10.80;;;4.68;;
42144;SDS011;27813;43.516;11.890;2023-07-13T20:54:03;11.57;;;4.55;;
42144;SDS011;27813;43.516;11.890;2023-07-13T20:58:21;13.52;;;5.47;;
42144;SDS011;27813;43.516;11.890;2023-07-13T21:02:32;16.80;;;5.93;;
42144;SDS011;27813;43.516;11.890;2023-07-13T21:06:40;12.82;;;4.70;;
42144;SDS011;27813;43.516;11.890;2023-07-13T21:10:48;13.95;;;4.60;;
42144;SDS011;27813;43.516;11.890;2023-07-13T21:14:54;13.50;;;4.53;;
42144;SDS011;27813;43.516;11.890;2023-07-13T21:19:01;12.15;;;4.68;;
42144;SDS011;27813;43.516;11.890;2023-07-13T21:23:12;12.48;;;5.20;;
42144;SDS011;27813;43.516;11.890;2023-07-13T21:27:40;11.43;;;5.63;;
42144;SDS011;27813;43.516;11.890;2023-07-13T21:31:45;16.38;;;5.13;;
42144;SDS011;27813;43.516;11.890;2023-07-13T21:35:53;13.52;;;4.63;;
42144;SDS011;27813;43.516;11.890;2023-07-13T21:39:57;10.88;;;4.80;;
42144;SDS011;27813;43.516;11.890;2023-07-13T21:44:02;10.10;;;5.05;;
42144;SDS011;27813;43.516;11.890;2023-07-13T21:48:22;9.68;;;5.15;;
42144;SDS011;27813;43.516;11.890;2023-07-13T21:52:28;10.55;;;5.10;;
42144;SDS011;27813;43.516;11.890;2023-07-13T21:56:32;9.30;;;4.75;;
42144;SDS011;27813;43.516;11.890;2023-07-13T22:00:36;9.95;;;5.53;;
42144;SDS011;27813;43.516;11.890;2023-07-13T22:04:41;13.05;;;5.68;;
42144;SDS011;27813;43.516;11.890;2023-07-13T22:08:45;12.43;;;5.88;;
42144;SDS011;27813;43.516;11.890;2023-07-13T22:12:49;12.10;;;5.30;;
42144;SDS011;27813;43.516;11.890;2023-07-13T22:16:54;11.38;;;6.00;;
42144;SDS011;27813;43.516;11.890;2023-07-13T22:20:58;9.45;;;4.95;;
42144;SDS011;27813;43.516;11.890;2023-07-13T22:25:02;13.90;;;5.38;;
42144;SDS011;27813;43.516;11.890;2023-07-13T22:29:11;13.52;;;4.93;;
42144;SDS011;27813;43.516;11.890;2023-07-13T22:33:19;13.07;;;5.40;;
42144;SDS011;27813;43.516;11.890;2023-07-13T22:37:24;13.48;;;5.60;;
42144;SDS011;27813;43.516;11.890;2023-07-13T22:41:28;13.52;;;4.88;;
42144;SDS011;27813;43.516;11.890;2023-07-13T22:45:35;12.90;;;4.93;;
42144;SDS011;27813;43.516;11.890;2023-07-13T22:49:39;11.82;;;5.30;;
42144;SDS011;27813;43.516;11.890;2023-07-13T22:53:43;12.25;;;5.22;;
42144;SDS011;27813;43.516;11.890;2023-07-13T22:57:48;8.65;;;5.13;;
42144;SDS011;27813;43.516;11.890;2023-07-13T23:01:53;11.02;;;4.80;;
42144;SDS011;27813;43.516;11.890;2023-07-13T23:05:57;11.13;;;5.22;;
42144;SDS011;27813;43.516;11.890;2023-07-13T23:10:13;13.88;;;5.00;;
42144;SDS011;27813;43.516;11.890;2023-07-13T23:14:18;14.17;;;5.27;;
42144;SDS011;27813;43.516;11.890;2023-07-13T23:18:23;9.25;;;4.82;;
42144;SDS011;27813;43.516;11.890;2023-07-13T23:22:26;10.20;;;5.22;;
42144;SDS011;27813;43.516;11.890;2023-07-13T23:26:31;9.60;;;5.68;;
